Time;durP1;ratioP1;P1;durP2;ratioP2;P2;SDS_P1;SDS_P2;PMS_P1;PMS_P2;Temp;Humidity;BMP_temperature;BMP_pressure;BME280_temperature;BME280_humidity;BME280_pressure;Samples;Min_cycle;Max_cycle;Signal;HPM_P1;HPM_P2
2021/05/11 16:27:08;;;;;;;5.02;2.60;;;;;;;24.60;27.68;99672.30;319924;119;2197882;-75
2021/05/11 16:29:27;;;;;;;;;;;;;;;24.55;27.74;99670.72;295445;117;2973647;-76
2021/05/11 16:31:50;;;;;;;;;;;;;;;24.47;27.86;99669.11;334845;117;2191651;-76
2021/05/11 16:35:24;;;;;;;;;;;;;;;24.44;28.03;99667.92;284647;111;3099359;-74
2021/05/11 16:37:41;;;;;;;;;;;;;;;24.44;28.12;99670.66;332254;117;2192921;-75
2021/05/11 16:38:49;;;;;;;8.90;2.36;;;;;;;24.27;28.24;99660.41;314285;118;2172586;-75
2021/05/11 16:41:15;;;;;;;4.10;2.09;;;;;;;24.35;28.33;99656.54;330438;115;2196811;-76
2021/05/11 16:43:31;;;;;;;;;;;;;;;24.29;28.56;99669.02;314994;117;2192623;-75
2021/05/11 16:46:02;;;;;;;;;;;;;;;24.14;28.77;99664.63;321440;112;2192712;-75
2021/05/11 16:48:21;;;;;;;3.96;2.21;;;;;;;24.07;28.98;99663.44;328873;117;2173825;-75
2021/05/11 16:50:43;;;;;;;;;;;;;;;24.01;29.08;99664.94;334192;117;2192741;-75
2021/05/11 16:53:03;;;;;;;8.15;2.69;;;;;;;23.94;29.23;99667.64;293530;119;2212211;-74
2021/05/11 16:55:28;;;;;;;5.41;2.38;;;;;;;23.86;29.48;99660.50;322906;117;2195095;-75
2021/05/11 16:57:45;;;;;;;6.61;2.77;;;;;;;23.78;29.76;99671.41;324967;115;2191656;-75
2021/05/11 17:00:09;;;;;;;5.56;2.31;;;;;;;23.64;30.01;99679.53;320702;119;2192711;-77
2021/05/11 17:02:28;;;;;;;8.46;2.41;;;;;;;23.55;30.07;99671.64;324631;117;2191587;-75
2021/05/11 17:04:50;;;;;;;;;;;;;;;23.53;30.08;99668.48;328350;117;2200785;-77
2021/05/11 17:07:10;;;;;;;5.93;2.48;;;;;;;23.42;30.24;99676.59;326945;116;2168776;-75
2021/05/11 17:09:30;;;;;;;;;;;;;;;23.36;30.45;99674.59;333962;115;2194651;-76
2021/05/11 17:11:47;;;;;;;9.27;2.99;;;;;;;23.30;30.66;99665.95;326524;117;2193671;-77
2021/05/11 17:12:55;;;;;;;5.89;3.54;;;;;;;23.14;30.76;99671.64;304051;116;3067793;-77
2021/05/11 17:15:15;;;;;;;7.54;3.38;;;;;;;23.18;30.82;99668.95;294580;119;2246275;-77
2021/05/11 17:17:39;;;;;;;;;;;;;;;23.06;31.23;99664.48;330883;117;2194668;-77
2021/05/11 17:18:45;;;;;;;4.90;2.66;;;;;;;22.97;30.92;99662.06;270403;121;3033786;-77
2021/05/11 17:21:03;;;;;;;4.37;2.28;;;;;;;22.97;31.15;99658.55;331977;117;2193677;-77
2021/05/11 17:23:39;;;;;;;;;;;;;;;22.85;31.32;99659.58;332489;116;2192786;-77
2021/05/11 17:25:56;;;;;;;5.20;2.39;;;;;;;22.81;31.42;99659.55;298834;115;2344372;-74
2021/05/11 17:28:13;;;;;;;5.29;2.82;;;;;;;22.68;31.92;99659.02;329179;117;2192800;-78
2021/05/11 17:30:30;;;;;;;;;;;;;;;22.72;31.86;99665.32;334254;115;2186103;-76
2021/05/11 17:31:52;;;;;;;6.78;2.90;;;;;;;22.69;31.86;99666.04;305785;117;3100839;-77
2021/05/11 17:34:11;;;;;;;7.15;2.60;;;;;;;22.23;32.25;99606.91;329574;117;2193711;-77
2021/05/11 17:36:29;;;;;;;8.55;2.69;;;;;;;22.54;32.42;99664.30;331943;117;2193719;-75
2021/05/11 17:38:47;;;;;;;5.48;2.62;;;;;;;22.46;32.78;99668.90;321170;116;2193746;-75
2021/05/11 17:41:17;;;;;;;;;;;;;;;22.42;32.79;99673.53;321225;119;2201701;-75
2021/05/11 17:43:35;;;;;;;8.06;2.88;;;;;;;22.43;32.89;99687.97;332986;115;2193770;-74
2021/05/11 17:44:41;;;;;;;5.35;2.86;;;;;;;22.31;33.00;99686.23;299699;114;2168758;-74
2021/05/11 17:48:35;;;;;;;4.99;2.83;;;;;;;22.34;33.19;99699.19;329937;117;2278869;-77
2021/05/11 17:50:55;;;;;;;6.51;3.08;;;;;;;22.32;33.68;99696.02;321482;119;2193712;-75
2021/05/11 17:54:30;;;;;;;;;;;;;;;22.25;34.75;99696.70;320811;119;2190797;-75
2021/05/11 17:56:47;;;;;;;9.79;4.50;;;;;;;22.28;34.83;99701.42;292150;116;2432955;-78
2021/05/11 17:59:05;;;;;;;;;;;;;;;22.18;35.02;99700.11;304232;116;2437214;-76
2021/05/11 18:01:22;;;;;;;7.69;4.67;;;;;;;22.23;35.25;99699.80;328111;117;2193840;-74
2021/05/11 18:03:42;;;;;;;8.21;4.60;;;;;;;22.06;35.60;99684.73;331556;117;2193738;-75
2021/05/11 18:06:08;;;;;;;6.34;4.51;;;;;;;22.02;36.15;99705.73;296655;117;2935927;-76
2021/05/11 18:08:37;;;;;;;8.36;4.83;;;;;;;22.02;36.62;99704.93;325852;117;2194863;-76
2021/05/11 18:10:54;;;;;;;8.99;4.94;;;;;;;22.04;36.51;99711.61;319919;117;2191784;-77
2021/05/11 18:13:11;;;;;;;;;;;;;;;22.04;36.37;99708.88;309385;117;2668972;-76
2021/05/11 18:15:58;;;;;;;8.71;5.18;;;;;;;21.95;36.92;99716.53;294895;111;2904963;31
2021/05/11 18:18:21;;;;;;;;;;;;;;;21.74;37.89;99755.19;332961;117;2192755;-76
2021/05/11 18:19:28;;;;;;;7.87;4.57;;;;;;;21.75;39.74;99753.27;314312;119;2174652;-78
2021/05/11 18:21:53;;;;;;;8.40;4.26;;;;;;;21.34;41.71;99770.84;317527;115;2410892;-75
2021/05/11 18:24:17;;;;;;;7.04;3.98;;;;;;;20.31;45.85;99776.45;322198;119;2194027;-77
2021/05/11 18:26:37;;;;;;;7.29;3.97;;;;;;;20.24;46.61;99770.03;309083;119;2196699;-77
2021/05/11 18:28:55;;;;;;;;;;;;;;;20.00;47.28;99764.44;320006;119;2193454;-77
2021/05/11 18:31:13;;;;;;;9.69;4.47;;;;;;;20.00;47.43;99761.72;315605;119;2279748;-77
2021/05/11 18:33:36;;;;;;;8.41;4.66;;;;;;;20.04;47.39;99783.56;325082;116;2282418;-75
2021/05/11 18:35:55;;;;;;;8.89;4.52;;;;;;;19.79;48.56;99788.35;330562;117;2193708;-76
2021/05/11 18:38:33;;;;;;;6.52;4.43;;;;;;;19.85;48.78;99782.34;329308;117;2200577;-75
2021/05/11 18:40:52;;;;;;;6.96;4.23;;;;;;;19.70;49.57;99796.69;324255;117;2171637;-75
2021/05/11 18:43:12;;;;;;;6.92;4.19;;;;;;;19.58;49.68;99794.84;296210;115;2336235;-78
2021/05/11 18:45:35;;;;;;;7.05;4.16;;;;;;;19.43;49.86;99787.43;291418;119;2299774;-79
2021/05/11 18:47:58;;;;;;;7.57;4.98;;;;;;;19.27;50.70;99782.73;327206;115;2194938;-80
2021/05/11 18:50:23;;;;;;;5.58;4.52;;;;;;;19.09;51.82;99784.95;311271;117;2193668;-79
2021/05/11 18:52:51;;;;;;;10.52;5.07;;;;;;;18.90;52.24;99777.41;319962;119;2192915;-78
2021/05/11 18:55:20;;;;;;;5.37;4.58;;;;;;;18.61;53.82;99778.45;320144;112;2168929;-77
2021/05/11 19:12:14;;;;;;;7.72;4.56;;;;;;;18.28;55.27;99777.45;306949;115;2738355;-77
2021/05/11 19:14:40;;;;;;;7.12;5.18;;;;;;;18.15;55.54;99773.14;302680;116;2264017;-77
2021/05/11 19:17:10;;;;;;;7.20;5.32;;;;;;;17.98;56.42;99785.01;328676;115;2194938;-78
2021/05/11 19:18:16;;;;;;;9.31;5.19;;;;;;;17.98;55.95;99774.96;277946;117;2176543;31
2021/05/11 19:20:39;;;;;;;7.39;4.87;;;;;;;18.14;55.55;99768.87;306175;117;3071978;-78
2021/05/11 19:21:53;;;;;;;7.95;5.03;;;;;;;17.95;55.49;99778.36;302079;121;2168796;-75
2021/05/11 19:24:12;;;;;;;8.63;5.62;;;;;;;18.02;56.13;99768.85;326869;117;2192555;-77
2021/05/11 19:27:21;;;;;;;9.40;5.31;;;;;;;18.11;55.85;99769.55;287709;117;3074524;-75
2021/05/11 19:29:39;;;;;;;5.54;4.79;;;;;;;18.16;55.36;99769.30;317217;121;2193776;-72
2021/05/11 19:31:57;;;;;;;6.94;5.00;;;;;;;17.85;55.07;99700.05;324785;117;2279633;-74
2021/05/11 19:34:20;;;;;;;8.62;5.26;;;;;;;18.23;55.09;99766.81;332940;117;2192720;-71
2021/05/11 19:35:26;;;;;;;6.13;4.79;;;;;;;18.14;55.39;99763.44;299419;125;2169684;-75
2021/05/11 19:37:50;;;;;;;6.09;5.29;;;;;;;18.26;55.45;99771.59;304263;117;2803930;-74
2021/05/11 19:40:12;;;;;;;8.63;6.07;;;;;;;18.28;54.87;99774.74;329048;117;2189761;-74
2021/05/11 19:42:37;;;;;;;9.83;7.73;;;;;;;18.34;54.72;99777.23;330813;117;2193835;-74
2021/05/11 19:45:02;;;;;;;8.71;7.62;;;;;;;18.28;55.29;99774.74;300150;117;2360716;-73
2021/05/11 19:46:10;;;;;;;10.70;7.27;;;;;;;18.17;54.79;99770.90;285228;119;2868949;-75
2021/05/11 19:48:45;;;;;;;8.89;7.09;;;;;;;18.28;55.12;99782.11;329924;117;2193796;-75
2021/05/11 19:50:03;;;;;;;8.50;6.81;;;;;;;18.15;55.38;99792.14;266358;126;2407899;-74
2021/05/11 19:52:21;;;;;;;11.78;6.02;;;;;;;18.12;55.86;99792.83;331320;112;2168002;-75
2021/05/11 19:53:27;;;;;;;10.14;5.99;;;;;;;18.01;55.50;99794.41;280324;124;3099929;-74
2021/05/11 19:55:52;;;;;;;9.38;5.89;;;;;;;18.14;55.48;99785.16;328275;112;2193684;-73
2021/05/11 19:56:53;;;;;;;9.52;5.10;;;;;;;18.06;55.22;99791.48;309719;118;2170783;-79
2021/05/11 19:59:18;;;;;;;11.46;5.65;;;;;;;18.26;54.39;99771.59;298033;117;2958726;-72
2021/05/11 20:00:23;;;;;;;10.23;5.86;;;;;;;18.10;54.72;99778.81;293778;119;2168692;-75
2021/05/11 20:01:34;;;;;;;7.83;5.34;;;;;;;18.02;55.09;99782.42;316317;119;2168646;-72
2021/05/11 20:02:36;;;;;;;8.14;5.18;;;;;;;18.12;54.14;99777.35;282073;119;2402969;-72
2021/05/11 20:04:53;;;;;;;8.57;5.18;;;;;;;18.30;54.13;99794.19;308407;112;2735940;-72
2021/05/11 20:05:59;;;;;;;8.53;5.24;;;;;;;18.09;54.47;99793.52;286145;127;2174877;-73
2021/05/11 20:08:16;;;;;;;7.85;5.95;;;;;;;18.29;53.82;99791.81;306836;117;2410026;-70
2021/05/11 20:09:24;;;;;;;11.15;5.21;;;;;;;18.14;53.56;99796.80;297871;114;2170536;-75
2021/05/11 20:10:30;;;;;;;9.31;5.12;;;;;;;18.16;53.26;99804.59;263092;127;2352020;-72
2021/05/11 20:11:36;;;;;;;6.11;5.20;;;;;;;18.16;52.87;99799.17;296105;125;2168763;-74
2021/05/11 20:12:41;;;;;;;8.39;5.00;;;;;;;18.09;53.02;99807.86;295345;127;2171787;-73
2021/05/11 20:13:53;;;;;;;8.46;5.03;;;;;;;18.17;53.34;99800.76;268343;124;3071026;-73
2021/05/11 20:14:57;;;;;;;6.46;5.32;;;;;;;18.23;53.56;99799.39;282423;127;2172667;-75
2021/05/11 20:16:02;;;;;;;8.57;5.90;;;;;;;18.18;53.66;99802.35;295945;121;2169724;-72
2021/05/11 20:18:20;;;;;;;7.64;5.61;;;;;;;18.13;55.44;99803.34;333926;117;2192549;-74
2021/05/11 20:19:28;;;;;;;8.34;5.96;;;;;;;17.97;55.68;99797.80;315705;119;2168752;-77
2021/05/11 20:20:33;;;;;;;8.25;5.85;;;;;;;17.91;54.90;99793.73;316077;119;2169835;-69
2021/05/11 20:21:38;;;;;;;6.28;5.35;;;;;;;17.84;54.56;99798.08;316074;119;2168593;-70
2021/05/11 20:22:45;;;;;;;6.58;5.16;;;;;;;17.78;54.48;99794.78;308376;119;3065104;-73
2021/05/11 20:25:02;;;;;;;8.38;5.29;;;;;;;17.73;54.47;99782.23;332726;117;2195680;-75
2021/05/11 20:26:07;;;;;;;5.78;4.84;;;;;;;17.61;54.23;99785.70;282284;119;2411014;-75
2021/05/11 20:27:13;;;;;;;8.29;4.82;;;;;;;17.50;52.79;99779.11;315636;119;2175838;-76
2021/05/11 20:28:18;;;;;;;6.48;4.68;;;;;;;17.48;53.36;99770.53;315962;119;2168667;-74
2021/05/11 20:29:23;;;;;;;6.48;5.37;;;;;;;17.46;53.23;99767.34;316479;119;2169872;-76
2021/05/11 20:30:31;;;;;;;6.30;5.68;;;;;;;17.43;53.46;99778.86;306813;119;2436005;-75
2021/05/11 20:32:54;;;;;;;11.47;5.10;;;;;;;17.36;53.35;99784.03;332663;117;2197775;-72
2021/05/11 20:34:01;;;;;;;7.78;5.51;;;;;;;17.30;53.08;99770.67;315617;119;2171866;-74
2021/05/11 20:35:13;;;;;;;9.42;5.44;;;;;;;17.28;53.32;99778.36;315771;119;2169739;-70
2021/05/11 20:36:25;;;;;;;6.31;5.42;;;;;;;17.26;53.05;99772.47;313970;119;2172592;-74
2021/05/11 20:37:31;;;;;;;6.02;5.08;;;;;;;17.20;53.05;99775.73;316158;119;2168609;-73
2021/05/11 20:38:38;;;;;;;7.41;5.64;;;;;;;17.18;52.91;99781.47;300000;119;3101017;-72
